createdAt,value
2023-05-24T00:01:57.073Z,22.83
2023-05-24T00:04:25.471Z,25.23
2023-05-24T00:06:55.035Z,27.30
2023-05-24T00:09:21.939Z,33.53
2023-05-24T00:11:48.751Z,23.83
2023-05-24T00:14:15.588Z,24.05
2023-05-24T00:16:42.344Z,23.55
2023-05-24T00:19:11.371Z,23.60
2023-05-24T00:21:38.494Z,24.40
2023-05-24T00:24:05.219Z,25.60
2023-05-24T00:26:31.854Z,27.20
2023-05-24T00:28:58.702Z,27.02
2023-05-24T00:31:25.305Z,20.65
2023-05-24T00:33:51.900Z,24.77
2023-05-24T00:36:18.586Z,25.63
2023-05-24T00:38:47.662Z,26.02
2023-05-24T00:41:16.388Z,31.50
2023-05-24T00:43:46.175Z,25.90
2023-05-24T00:46:15.498Z,24.05
2023-05-24T00:48:42.978Z,23.73
2023-05-24T00:51:10.157Z,30.17
2023-05-24T00:53:37.883Z,27.00
2023-05-24T00:56:04.709Z,23.55
2023-05-24T00:58:32.592Z,27.25
2023-05-24T01:01:01.231Z,26.75
2023-05-24T01:03:31.788Z,26.33
2023-05-24T01:06:01.528Z,25.15
2023-05-24T01:08:40.473Z,33.90
2023-05-24T01:11:29.828Z,26.27
2023-05-24T01:14:34.000Z,27.60
2023-05-24T01:17:06.768Z,24.83
2023-05-24T01:19:43.382Z,30.20
2023-05-24T01:22:25.735Z,30.67
2023-05-24T01:25:21.209Z,29.55
2023-05-24T01:27:48.273Z,25.50
2023-05-24T01:30:15.558Z,24.63
2023-05-24T01:32:42.733Z,27.75
2023-05-24T01:35:09.576Z,24.25
2023-05-24T01:37:36.163Z,28.33
2023-05-24T01:40:04.366Z,29.23
2023-05-24T01:42:41.918Z,26.55
2023-05-24T01:45:23.085Z,26.08
2023-05-24T01:47:58.153Z,27.27
2023-05-24T01:50:43.665Z,26.40
2023-05-24T01:53:13.516Z,29.83
2023-05-24T01:55:40.991Z,26.65
2023-05-24T01:58:10.006Z,23.70
2023-05-24T02:00:37.707Z,26.40
2023-05-24T02:03:05.144Z,30.02
2023-05-24T02:05:34.918Z,28.13
2023-05-24T02:08:05.822Z,31.05
2023-05-24T02:10:32.397Z,30.33
2023-05-24T02:12:59.574Z,31.48
2023-05-24T02:15:30.524Z,26.42
2023-05-24T02:17:57.916Z,29.45
2023-05-24T02:20:24.590Z,25.52
2023-05-24T02:22:51.362Z,31.92
2023-05-24T02:25:18.007Z,25.90
2023-05-24T02:27:47.115Z,25.10
2023-05-24T02:30:13.925Z,32.05
2023-05-24T02:32:41.445Z,30.40
2023-05-24T02:35:08.119Z,26.23
2023-05-24T02:37:34.971Z,29.25
2023-05-24T02:40:01.761Z,23.98
2023-05-24T02:42:28.321Z,28.08
2023-05-24T02:44:54.830Z,27.55
2023-05-24T02:47:21.502Z,32.28
2023-05-24T02:49:48.157Z,24.33
2023-05-24T02:52:15.986Z,28.20
2023-05-24T02:54:42.686Z,26.08
2023-05-24T02:57:09.251Z,29.05
2023-05-24T02:59:36.470Z,29.40
2023-05-24T03:02:03.260Z,31.85
2023-05-24T03:04:30.037Z,29.70
2023-05-24T03:06:57.057Z,26.08
2023-05-24T03:09:23.652Z,29.88
2023-05-24T03:11:51.708Z,30.92
2023-05-24T03:14:20.408Z,27.13
2023-05-24T03:16:46.931Z,29.55
2023-05-24T03:19:13.499Z,30.02
2023-05-24T03:21:40.074Z,29.20
2023-05-24T03:24:06.856Z,27.95
2023-05-24T03:26:33.351Z,30.85
2023-05-24T03:28:59.993Z,30.02
2023-05-24T03:31:33.565Z,28.67
2023-05-24T03:34:00.661Z,28.60
2023-05-24T03:36:29.216Z,27.73
2023-05-24T03:38:58.324Z,32.08
2023-05-24T03:41:26.195Z,26.10
2023-05-24T03:43:53.101Z,30.20
2023-05-24T03:46:20.922Z,26.50
2023-05-24T03:48:48.918Z,22.80
2023-05-24T03:51:15.738Z,27.95
2023-05-24T03:53:42.341Z,20.25
2023-05-24T03:56:09.469Z,28.52
2023-05-24T03:58:36.292Z,28.08
2023-05-24T04:01:03.507Z,25.10
2023-05-24T04:03:30.140Z,30.13
2023-05-24T04:05:56.855Z,30.20
2023-05-24T04:08:23.413Z,31.63
2023-05-24T04:10:49.953Z,30.35
2023-05-24T04:13:16.527Z,28.90
2023-05-24T04:15:43.432Z,28.65
2023-05-24T04:18:12.038Z,26.50
2023-05-24T04:20:38.925Z,25.50
2023-05-24T04:23:05.803Z,28.70
2023-05-24T04:25:33.572Z,27.67
2023-05-24T04:28:00.358Z,30.23
2023-05-24T04:30:30.110Z,29.90
2023-05-24T04:32:57.923Z,29.30
2023-05-24T04:35:27.749Z,29.90
2023-05-24T04:37:54.377Z,26.70
2023-05-24T04:40:21.059Z,29.92
2023-05-24T04:42:47.729Z,25.02
2023-05-24T04:45:14.368Z,28.65
2023-05-24T04:47:41.408Z,30.98
2023-05-24T04:50:08.344Z,29.52
2023-05-24T04:52:36.538Z,28.83
2023-05-24T04:55:03.926Z,24.52
2023-05-24T04:57:30.556Z,31.33
2023-05-24T04:59:57.455Z,27.17
2023-05-24T05:02:26.481Z,20.98
2023-05-24T05:04:53.476Z,29.73
2023-05-24T05:07:20.058Z,28.67
2023-05-24T05:09:46.685Z,28.23
2023-05-24T05:12:13.282Z,30.95
2023-05-24T05:14:39.908Z,23.98
2023-05-24T05:17:06.433Z,26.27
2023-05-24T05:19:32.863Z,24.38
2023-05-24T05:21:59.400Z,23.88
2023-05-24T05:24:25.870Z,26.10
2023-05-24T05:26:52.369Z,27.70
2023-05-24T05:29:19.172Z,28.83
2023-05-24T05:31:46.885Z,26.45
2023-05-24T05:34:13.395Z,28.73
2023-05-24T05:36:40.854Z,23.35
2023-05-24T05:39:10.870Z,27.35
2023-05-24T05:41:45.922Z,28.00
2023-05-24T05:44:14.461Z,28.38
2023-05-24T05:46:43.859Z,31.48
2023-05-24T05:49:10.703Z,29.90
2023-05-24T05:51:38.635Z,33.40
2023-05-24T05:54:06.066Z,34.08
2023-05-24T05:56:32.870Z,25.55
2023-05-24T05:58:59.566Z,32.95
2023-05-24T06:01:26.257Z,34.28
2023-05-24T06:03:52.906Z,30.50
2023-05-24T06:06:19.476Z,27.30
2023-05-24T06:08:46.297Z,29.35
2023-05-24T06:11:12.937Z,26.55
2023-05-24T06:13:39.532Z,19.60
2023-05-24T06:16:08.473Z,26.77
2023-05-24T06:18:36.597Z,23.17
2023-05-24T06:21:03.278Z,26.92
2023-05-24T06:23:30.081Z,24.42
2023-05-24T06:25:56.675Z,28.90
2023-05-24T06:28:23.302Z,30.25
2023-05-24T06:30:49.871Z,25.10
2023-05-24T06:33:16.671Z,28.13
2023-05-24T06:35:43.208Z,19.20
2023-05-24T06:38:09.785Z,21.08
2023-05-24T06:40:36.513Z,23.35
2023-05-24T06:43:04.746Z,19.98
2023-05-24T06:45:31.919Z,22.48
2023-05-24T06:47:59.051Z,23.55
2023-05-24T06:50:25.759Z,21.75
2023-05-24T06:52:52.350Z,28.45
2023-05-24T06:55:19.931Z,24.40
2023-05-24T06:57:46.559Z,21.17
2023-05-24T07:00:13.701Z,15.43
2023-05-24T07:02:40.573Z,19.20
2023-05-24T07:05:12.451Z,26.23
2023-05-24T07:07:40.178Z,23.35
2023-05-24T07:10:08.312Z,20.52
2023-05-24T07:12:35.013Z,21.77
2023-05-24T07:15:01.990Z,23.05
2023-05-24T07:17:28.614Z,22.83
2023-05-24T07:19:55.265Z,22.88
2023-05-24T07:22:22.776Z,20.70
2023-05-24T07:24:49.353Z,25.10
2023-05-24T07:27:15.978Z,22.55
2023-05-24T07:29:42.656Z,20.58
2023-05-24T07:32:09.369Z,19.27
2023-05-24T07:34:35.995Z,21.48
2023-05-24T07:37:02.551Z,19.45
2023-05-24T07:39:29.259Z,18.85
2023-05-24T07:41:56.125Z,20.63
2023-05-24T07:44:23.856Z,24.25
2023-05-24T07:46:51.035Z,22.55
2023-05-24T07:49:17.834Z,19.45
2023-05-24T07:51:44.656Z,20.67
2023-05-24T07:54:11.737Z,19.38
2023-05-24T07:56:38.766Z,21.00
2023-05-24T07:59:05.344Z,19.02
2023-05-24T08:01:34.462Z,20.15
2023-05-24T08:04:04.178Z,20.45
2023-05-24T08:06:32.820Z,13.73
2023-05-24T08:08:59.450Z,18.48
2023-05-24T08:11:26.618Z,20.17
2023-05-24T08:13:53.242Z,21.90
2023-05-24T08:16:19.862Z,17.05
2023-05-24T08:18:46.581Z,19.35
2023-05-24T08:21:13.251Z,19.55
2023-05-24T08:23:39.814Z,16.67
2023-05-24T08:26:06.396Z,16.58
2023-05-24T08:28:33.381Z,17.75
2023-05-24T08:31:00.121Z,18.90
2023-05-24T08:33:26.708Z,19.02
2023-05-24T08:35:53.284Z,17.08
2023-05-24T08:38:19.924Z,19.85
2023-05-24T08:40:48.185Z,17.27
2023-05-24T08:43:15.218Z,15.68
2023-05-24T08:45:43.154Z,16.80
2023-05-24T08:48:10.164Z,18.90
2023-05-24T08:50:37.003Z,14.85
2023-05-24T08:53:07.366Z,19.33
2023-05-24T08:55:35.408Z,16.50
2023-05-24T08:58:02.158Z,14.73
2023-05-24T09:00:29.014Z,19.00
2023-05-24T09:02:57.413Z,17.95
2023-05-24T09:05:25.851Z,24.67
2023-05-24T09:07:54.280Z,20.35
2023-05-24T09:10:23.801Z,16.48
2023-05-24T09:12:55.848Z,17.75
2023-05-24T09:15:22.701Z,19.27
2023-05-24T09:17:49.442Z,15.20
2023-05-24T09:20:16.414Z,18.77
2023-05-24T09:22:43.975Z,17.55
2023-05-24T09:25:14.165Z,19.90
2023-05-24T09:27:41.488Z,22.15
2023-05-24T09:30:10.315Z,23.10
2023-05-24T09:32:37.331Z,19.25
2023-05-24T09:35:08.414Z,24.02
2023-05-24T09:37:38.537Z,28.50
2023-05-24T09:40:07.167Z,20.98
2023-05-24T09:42:33.919Z,23.52
2023-05-24T09:45:10.540Z,21.10
2023-05-24T09:47:39.033Z,25.20
2023-05-24T09:50:11.883Z,25.90
2023-05-24T09:52:39.458Z,37.22
2023-05-24T09:55:15.381Z,23.55
2023-05-24T09:57:44.010Z,29.20
2023-05-24T10:00:17.566Z,31.00
2023-05-24T10:02:53.095Z,25.17
2023-05-24T10:05:21.189Z,28.80
2023-05-24T10:07:48.310Z,25.73
2023-05-24T10:10:15.426Z,25.88
2023-05-24T10:12:44.091Z,23.25
2023-05-24T10:15:12.207Z,24.92
2023-05-24T10:17:39.025Z,22.15
2023-05-24T10:20:09.979Z,25.45
2023-05-24T10:22:51.865Z,23.70
2023-05-24T10:25:25.775Z,21.98
2023-05-24T10:27:57.499Z,18.90
2023-05-24T10:30:47.460Z,24.67
2023-05-24T10:33:14.718Z,18.02
2023-05-24T10:35:42.651Z,23.27
2023-05-24T10:38:09.463Z,23.65
2023-05-24T10:40:42.011Z,19.00
2023-05-24T10:43:08.818Z,23.25
2023-05-24T10:45:40.699Z,18.25
2023-05-24T10:48:13.935Z,17.02
2023-05-24T10:50:42.103Z,22.58
2023-05-24T10:53:13.901Z,23.20
2023-05-24T10:56:01.135Z,17.60
2023-05-24T10:58:33.769Z,24.00
2023-05-24T11:01:00.379Z,23.77
2023-05-24T11:03:33.238Z,19.98
2023-05-24T11:06:00.245Z,23.17
2023-05-24T11:08:33.227Z,22.73
2023-05-24T11:11:22.506Z,19.92
2023-05-24T11:13:56.140Z,23.88
2023-05-24T11:16:35.193Z,19.55
2023-05-24T11:21:50.086Z,23.85
2023-05-24T11:24:21.697Z,16.90
2023-05-24T11:26:52.127Z,18.05
2023-05-24T11:29:22.111Z,20.17
2023-05-24T11:31:53.111Z,16.50
2023-05-24T11:34:21.162Z,20.08
2023-05-24T11:36:48.584Z,19.17
2023-05-24T11:39:16.252Z,21.13
2023-05-24T11:41:43.120Z,15.70
2023-05-24T11:44:10.797Z,18.65
2023-05-24T11:46:39.654Z,19.73
2023-05-24T11:49:06.998Z,18.00
2023-05-24T11:51:35.137Z,19.23
2023-05-24T11:54:01.899Z,19.88
2023-05-24T11:56:33.954Z,17.58
2023-05-24T11:59:10.090Z,21.77
2023-05-24T12:01:38.055Z,17.27
2023-05-24T12:04:06.389Z,17.70
2023-05-24T12:06:41.490Z,19.02
2023-05-24T12:09:10.655Z,18.50
2023-05-24T12:11:42.076Z,17.67
2023-05-24T12:14:17.604Z,21.25
2023-05-24T12:16:45.926Z,20.70
2023-05-24T12:19:31.762Z,16.52
2023-05-24T12:21:59.626Z,18.48
2023-05-24T12:24:27.668Z,16.08
2023-05-24T12:26:59.263Z,19.15
2023-05-24T12:29:25.869Z,18.38
2023-05-24T12:31:52.955Z,14.75
2023-05-24T12:34:20.242Z,17.40
2023-05-24T12:36:48.105Z,17.00
2023-05-24T12:39:18.113Z,15.65
2023-05-24T12:41:45.724Z,16.92
2023-05-24T12:44:12.523Z,22.05
2023-05-24T12:46:39.395Z,19.50
2023-05-24T12:49:06.007Z,19.45
2023-05-24T12:51:32.600Z,18.85
2023-05-24T12:53:59.181Z,17.10
2023-05-24T12:56:27.420Z,16.90
2023-05-24T12:58:55.748Z,16.33
2023-05-24T13:01:22.460Z,22.40
2023-05-24T13:03:49.098Z,22.80
2023-05-24T13:06:16.138Z,16.35
2023-05-24T13:08:42.717Z,17.58
2023-05-24T13:11:09.341Z,17.48
2023-05-24T13:13:35.901Z,17.50
2023-05-24T13:16:02.860Z,14.95
2023-05-24T13:18:30.376Z,20.02
2023-05-24T13:21:00.291Z,16.17
2023-05-24T13:23:27.603Z,15.23
2023-05-24T13:25:54.215Z,16.88
2023-05-24T13:28:20.818Z,17.27
2023-05-24T13:30:48.721Z,22.35
2023-05-24T13:33:15.861Z,16.83
2023-05-24T13:35:42.587Z,16.58
2023-05-24T13:38:09.592Z,14.77
2023-05-24T13:40:37.400Z,19.83
2023-05-24T13:43:04.827Z,18.90
2023-05-24T13:45:33.202Z,16.52
2023-05-24T13:48:04.504Z,17.95
2023-05-24T13:50:33.187Z,19.90
2023-05-24T13:53:03.652Z,24.33
2023-05-24T13:55:32.257Z,24.40
2023-05-24T13:57:59.031Z,21.75
2023-05-24T14:00:25.528Z,22.73
2023-05-24T14:02:52.563Z,21.95
2023-05-24T14:05:27.471Z,17.45
2023-05-24T14:07:55.729Z,21.48
2023-05-24T14:10:22.625Z,26.17
2023-05-24T14:13:03.408Z,25.63
2023-05-24T14:15:36.280Z,20.80
2023-05-24T14:18:07.715Z,19.67
2023-05-24T14:20:37.814Z,18.10
2023-05-24T14:23:04.972Z,18.55
2023-05-24T14:25:32.007Z,19.77
2023-05-24T14:27:59.425Z,20.13
2023-05-24T14:30:26.815Z,18.88
2023-05-24T14:32:53.519Z,27.85
2023-05-24T14:35:20.244Z,22.35
2023-05-24T14:37:46.910Z,23.25
2023-05-24T14:40:13.731Z,19.77
2023-05-24T14:42:42.069Z,18.40
2023-05-24T14:45:09.696Z,18.27
2023-05-24T14:47:37.694Z,20.80
2023-05-24T14:50:06.236Z,18.85
2023-05-24T14:52:36.834Z,18.17
2023-05-24T14:55:05.307Z,17.20
2023-05-24T14:57:32.290Z,18.95
2023-05-24T14:59:59.918Z,21.65
2023-05-24T15:02:28.319Z,17.42
2023-05-24T15:04:56.090Z,20.42
2023-05-24T15:07:24.287Z,20.27
2023-05-24T15:09:53.246Z,20.27
2023-05-24T15:12:21.180Z,20.92
2023-05-24T15:14:48.393Z,20.42
2023-05-24T15:17:16.389Z,20.95
2023-05-24T15:19:58.328Z,20.83
2023-05-24T15:25:30.402Z,18.95
2023-05-24T15:28:03.217Z,21.17
2023-05-24T15:30:30.376Z,18.48
2023-05-24T15:32:57.313Z,17.48
2023-05-24T15:35:23.908Z,16.55
2023-05-24T15:37:50.646Z,19.90
2023-05-24T15:40:18.620Z,20.27
2023-05-24T15:42:45.353Z,19.15
2023-05-24T15:45:12.086Z,16.48
2023-05-24T15:47:40.295Z,19.92
2023-05-24T15:50:08.548Z,16.77
2023-05-24T15:52:35.680Z,16.05
2023-05-24T15:55:02.273Z,21.27
2023-05-24T15:57:28.913Z,15.48
2023-05-24T15:59:55.527Z,20.27
2023-05-24T16:02:22.570Z,16.90
2023-05-24T16:04:50.176Z,17.50
2023-05-24T16:07:18.179Z,18.05
2023-05-24T16:09:46.778Z,16.52
2023-05-24T16:12:13.389Z,19.98
2023-05-24T16:14:40.102Z,16.42
2023-05-24T16:17:06.828Z,13.90
2023-05-24T16:19:33.528Z,15.52
2023-05-24T16:22:00.071Z,17.67
2023-05-24T16:24:27.478Z,17.85
2023-05-24T16:26:54.136Z,18.88
2023-05-24T16:29:21.345Z,22.10
2023-05-24T16:31:48.268Z,22.63
2023-05-24T16:34:15.154Z,15.73
2023-05-24T16:36:42.125Z,21.30
2023-05-24T16:39:08.641Z,22.52
2023-05-24T16:41:37.548Z,15.07
2023-05-24T16:44:04.826Z,21.15
2023-05-24T16:46:31.892Z,17.42
2023-05-24T16:48:59.458Z,17.77
2023-05-24T16:51:26.428Z,21.00
2023-05-24T16:53:53.248Z,14.75
2023-05-24T16:56:19.893Z,17.90
2023-05-24T16:58:46.452Z,16.65
2023-05-24T17:01:12.973Z,17.58
2023-05-24T17:03:39.895Z,14.05
2023-05-24T17:06:06.548Z,22.88
2023-05-24T17:08:35.150Z,17.50
2023-05-24T17:11:02.825Z,16.83
2023-05-24T17:13:29.519Z,19.13
2023-05-24T17:15:57.263Z,20.02
2023-05-24T17:18:27.868Z,19.33
2023-05-24T17:20:59.980Z,24.77
2023-05-24T17:23:28.220Z,19.42
2023-05-24T17:25:58.327Z,18.15
2023-05-24T17:28:27.758Z,23.27
2023-05-24T17:30:59.213Z,20.27
2023-05-24T17:33:27.959Z,24.98
2023-05-24T17:35:57.751Z,19.17
2023-05-24T17:38:25.257Z,15.45
2023-05-24T17:40:59.363Z,18.08
2023-05-24T17:43:32.685Z,20.35
2023-05-24T17:46:05.922Z,17.37
2023-05-24T17:48:34.177Z,19.87
2023-05-24T17:51:02.044Z,20.13
2023-05-24T17:53:33.499Z,18.77
2023-05-24T17:56:00.689Z,17.23
2023-05-24T17:58:28.470Z,17.00
2023-05-24T18:00:54.964Z,22.30
2023-05-24T18:03:21.470Z,17.67
2023-05-24T18:05:47.962Z,24.95
2023-05-24T18:08:14.429Z,18.83
2023-05-24T18:10:40.920Z,15.40
2023-05-24T18:13:11.171Z,17.75
2023-05-24T18:15:37.938Z,22.35
2023-05-24T18:18:04.712Z,17.67
2023-05-24T18:20:31.275Z,20.20
2023-05-24T18:22:58.075Z,21.05
2023-05-24T18:25:25.030Z,22.65
2023-05-24T18:27:51.672Z,19.80
2023-05-24T18:30:18.244Z,23.50
2023-05-24T18:33:02.766Z,23.90
2023-05-24T18:35:30.615Z,23.42
2023-05-24T18:37:57.640Z,21.67
2023-05-24T18:40:24.119Z,20.08
2023-05-24T18:42:50.946Z,26.60
2023-05-24T18:45:17.516Z,21.98
2023-05-24T18:47:44.126Z,22.90
2023-05-24T18:50:11.046Z,19.77
2023-05-24T18:52:37.660Z,21.58
2023-05-24T18:55:10.600Z,22.40
2023-05-24T18:57:37.952Z,20.35
2023-05-24T19:00:05.920Z,18.55
2023-05-24T19:02:38.201Z,17.05
2023-05-24T19:05:08.452Z,18.88
2023-05-24T19:07:35.876Z,18.55
2023-05-24T19:10:02.898Z,24.17
2023-05-24T19:12:30.150Z,23.33
2023-05-24T19:14:56.845Z,20.73
2023-05-24T19:17:24.692Z,18.08
2023-05-24T19:19:51.384Z,18.75
2023-05-24T19:22:17.900Z,19.77
2023-05-24T19:24:44.374Z,22.00
2023-05-24T19:27:10.990Z,18.75
2023-05-24T19:29:37.538Z,19.63
2023-05-24T19:32:04.461Z,22.77
2023-05-24T19:34:32.000Z,17.98
2023-05-24T19:36:58.470Z,16.38
2023-05-24T19:39:25.224Z,20.30
2023-05-24T19:41:52.466Z,18.80
2023-05-24T19:44:19.396Z,22.83
2023-05-24T19:46:45.975Z,22.90
2023-05-24T19:49:12.542Z,19.50
2023-05-24T19:51:39.017Z,18.35
2023-05-24T19:54:05.978Z,18.20
2023-05-24T19:56:32.612Z,18.10
2023-05-24T19:58:59.259Z,16.33
2023-05-24T20:01:25.928Z,18.42
2023-05-24T20:03:52.951Z,20.33
2023-05-24T20:06:19.522Z,22.10
2023-05-24T20:08:46.506Z,22.95
2023-05-24T20:11:14.213Z,21.50
2023-05-24T20:13:40.691Z,18.63
2023-05-24T20:16:07.322Z,23.95
2023-05-24T20:18:36.773Z,17.90
2023-05-24T20:21:03.503Z,20.20
2023-05-24T20:23:30.776Z,21.88
2023-05-24T20:25:57.549Z,17.73
2023-05-24T20:28:30.770Z,17.40
2023-05-24T20:33:24.742Z,22.50
2023-05-24T20:35:52.988Z,16.65
2023-05-24T20:38:19.800Z,19.40
2023-05-24T20:40:46.561Z,21.63
2023-05-24T20:43:13.384Z,18.25
2023-05-24T20:45:39.972Z,21.48
2023-05-24T20:48:06.693Z,18.23
2023-05-24T20:50:33.357Z,21.23
2023-05-24T20:52:59.914Z,18.23
2023-05-24T20:55:27.085Z,19.80
2023-05-24T20:57:54.112Z,23.27
2023-05-24T21:00:21.147Z,24.08
2023-05-24T21:02:47.827Z,21.30
2023-05-24T21:05:14.767Z,23.60
2023-05-24T21:07:41.507Z,27.10
2023-05-24T21:10:09.281Z,21.45
2023-05-24T21:12:35.740Z,19.60
2023-05-24T21:15:02.622Z,26.58
2023-05-24T21:17:30.735Z,17.27
2023-05-24T21:19:57.261Z,19.73
2023-05-24T21:22:23.747Z,23.23
2023-05-24T21:24:50.443Z,25.58
2023-05-24T21:27:18.729Z,21.45
2023-05-24T21:29:45.373Z,26.98
2023-05-24T21:32:11.856Z,21.90
2023-05-24T21:34:38.313Z,23.98
2023-05-24T21:37:05.095Z,19.90
2023-05-24T21:39:32.598Z,21.50
2023-05-24T21:41:59.066Z,22.17
2023-05-24T21:44:25.821Z,20.80
2023-05-24T21:46:52.415Z,18.55
2023-05-24T21:49:20.003Z,20.30
2023-05-24T21:51:46.847Z,17.77
2023-05-24T21:54:13.375Z,19.00
2023-05-24T21:56:39.847Z,21.13
2023-05-24T21:59:06.758Z,17.95
2023-05-24T22:01:33.370Z,19.45
2023-05-24T22:03:59.963Z,21.92
2023-05-24T22:06:26.709Z,19.27
2023-05-24T22:08:53.207Z,19.77
2023-05-24T22:11:19.725Z,16.08
2023-05-24T22:13:46.465Z,15.98
2023-05-24T22:16:12.989Z,18.95
2023-05-24T22:18:39.551Z,17.67
2023-05-24T22:21:06.071Z,19.75
2023-05-24T22:23:32.514Z,19.67
2023-05-24T22:25:58.982Z,14.55
2023-05-24T22:28:25.978Z,23.15
2023-05-24T22:30:52.464Z,17.75
2023-05-24T22:33:19.994Z,18.42
2023-05-24T22:35:46.576Z,22.02
2023-05-24T22:38:13.084Z,20.10
2023-05-24T22:40:42.015Z,17.02
2023-05-24T22:43:08.539Z,19.20
2023-05-24T22:45:35.028Z,17.27
2023-05-24T22:48:03.194Z,18.83
2023-05-24T22:50:29.957Z,18.83
2023-05-24T22:52:56.611Z,17.45
2023-05-24T22:55:23.700Z,21.92
2023-05-24T22:57:50.203Z,16.85
2023-05-24T23:00:17.309Z,17.50
2023-05-24T23:02:44.005Z,21.33
2023-05-24T23:05:11.521Z,22.20
2023-05-24T23:07:39.683Z,18.20
2023-05-24T23:10:07.946Z,16.27
2023-05-24T23:12:35.811Z,20.70
2023-05-24T23:15:02.654Z,23.95
2023-05-24T23:17:29.268Z,20.88
2023-05-24T23:19:55.820Z,20.02
2023-05-24T23:22:23.514Z,19.75
2023-05-24T23:24:50.018Z,24.60
2023-05-24T23:27:16.725Z,22.30
2023-05-24T23:29:43.350Z,22.33
2023-05-24T23:32:10.062Z,24.85
2023-05-24T23:34:37.083Z,18.25
2023-05-24T23:37:04.860Z,22.55
2023-05-24T23:39:31.528Z,26.33
2023-05-24T23:41:58.154Z,23.38
2023-05-24T23:44:25.579Z,20.02
2023-05-24T23:46:52.958Z,23.88
2023-05-24T23:49:20.441Z,19.20
2023-05-24T23:51:47.336Z,21.45
2023-05-24T23:54:14.710Z,19.90
2023-05-24T23:56:42.759Z,24.38
2023-05-24T23:59:09.495Z,21.73
